createdAt,value
2017-08-23T00:00:25.768Z,0
2017-08-23T00:01:25.764Z,0
2017-08-23T00:02:25.791Z,0
2017-08-23T00:03:25.788Z,0
2017-08-23T00:04:25.765Z,0
2017-08-23T00:05:25.758Z,0
2017-08-23T00:06:25.763Z,0
2017-08-23T00:07:25.753Z,0
2017-08-23T00:08:25.758Z,0
2017-08-23T00:09:25.763Z,0
2017-08-23T00:10:25.754Z,0
2017-08-23T00:11:25.762Z,0
2017-08-23T00:12:25.750Z,0
2017-08-23T00:13:25.443Z,0
2017-08-23T00:14:25.452Z,0
2017-08-23T00:15:25.449Z,0
2017-08-23T00:16:25.751Z,0
2017-08-23T00:17:25.740Z,0
2017-08-23T00:18:25.745Z,0
2017-08-23T00:19:25.749Z,0
2017-08-23T00:20:25.748Z,0
2017-08-23T00:21:25.741Z,0
2017-08-23T00:22:25.742Z,0
2017-08-23T00:23:25.744Z,0
2017-08-23T00:24:25.741Z,0
2017-08-23T00:25:25.734Z,0
2017-08-23T00:26:25.729Z,0
2017-08-23T00:27:25.740Z,0
2017-08-23T00:28:25.731Z,0
2017-08-23T00:29:25.727Z,0
2017-08-23T00:30:25.723Z,0
2017-08-23T00:31:25.723Z,0
2017-08-23T00:32:25.419Z,0
2017-08-23T00:33:25.729Z,0
2017-08-23T00:34:25.722Z,0
2017-08-23T00:35:25.719Z,0
2017-08-23T00:36:25.721Z,0
2017-08-23T00:37:25.721Z,0
2017-08-23T00:38:25.717Z,0
2017-08-23T00:39:25.721Z,0
2017-08-23T00:40:25.710Z,0
2017-08-23T00:41:25.714Z,0
2017-08-23T00:42:25.707Z,0
2017-08-23T00:43:25.702Z,0
2017-08-23T00:44:25.716Z,0
2017-08-23T00:45:25.708Z,0
2017-08-23T00:46:25.703Z,0
2017-08-23T00:47:25.705Z,0
2017-08-23T00:48:25.707Z,0
2017-08-23T00:49:25.702Z,0
2017-08-23T00:50:25.697Z,0
2017-08-23T00:51:25.703Z,0
2017-08-23T00:52:25.692Z,0
2017-08-23T00:53:25.388Z,0
2017-08-23T00:54:25.694Z,0
2017-08-23T00:55:25.691Z,0
2017-08-23T00:56:25.698Z,0
2017-08-23T00:57:25.073Z,0
2017-08-23T00:58:25.384Z,0
2017-08-23T00:59:25.692Z,0
2017-08-23T01:00:25.066Z,0
2017-08-23T01:01:25.080Z,0
2017-08-23T01:02:25.370Z,0
2017-08-23T01:03:25.690Z,0
2017-08-23T01:04:25.685Z,0
2017-08-23T01:05:25.065Z,0
2017-08-23T01:06:25.679Z,0
2017-08-23T01:07:25.676Z,0
2017-08-23T01:08:25.670Z,0
2017-08-23T01:09:25.675Z,0
2017-08-23T01:10:25.678Z,0
2017-08-23T01:11:25.667Z,0
2017-08-23T01:12:25.374Z,0
2017-08-23T01:13:25.358Z,0
2017-08-23T01:14:25.661Z,0
2017-08-23T01:15:25.662Z,0
2017-08-23T01:16:25.661Z,0
2017-08-23T01:17:25.658Z,0
2017-08-23T01:18:25.664Z,0
2017-08-23T01:19:25.659Z,0
2017-08-23T01:20:25.349Z,0
2017-08-23T01:21:25.660Z,0
2017-08-23T01:22:25.652Z,0
2017-08-23T01:23:25.351Z,0
2017-08-23T01:24:25.354Z,0
2017-08-23T01:25:25.342Z,0
2017-08-23T01:26:25.647Z,0
2017-08-23T01:27:25.665Z,0
2017-08-23T01:28:25.339Z,0
2017-08-23T01:29:25.339Z,0
2017-08-23T01:30:25.336Z,0
2017-08-23T01:31:25.333Z,0
2017-08-23T01:32:25.650Z,0
2017-08-23T01:33:25.635Z,0
2017-08-23T01:34:25.630Z,0
2017-08-23T01:35:25.636Z,0
2017-08-23T01:36:25.631Z,0
2017-08-23T01:37:25.643Z,0
2017-08-23T01:38:25.626Z,0
2017-08-23T01:39:25.323Z,0
2017-08-23T01:40:25.320Z,0
2017-08-23T01:41:25.626Z,0
2017-08-23T01:42:25.626Z,0
2017-08-23T01:43:25.618Z,0
2017-08-23T01:44:25.621Z,0
2017-08-23T01:45:25.624Z,0
2017-08-23T01:46:25.615Z,0
2017-08-23T01:47:25.615Z,0
2017-08-23T01:48:25.310Z,0
2017-08-23T01:49:25.618Z,0
2017-08-23T01:50:25.309Z,0
2017-08-23T01:51:25.605Z,0
2017-08-23T01:52:25.611Z,0
2017-08-23T01:53:25.605Z,0
2017-08-23T01:54:25.604Z,0
2017-08-23T01:55:25.604Z,0
2017-08-23T01:56:25.300Z,0
2017-08-23T01:57:25.605Z,0
2017-08-23T01:58:25.605Z,0
2017-08-23T01:59:25.601Z,0
2017-08-23T02:00:25.608Z,0
2017-08-23T02:01:25.589Z,0
2017-08-23T02:02:25.671Z,0
2017-08-23T02:03:25.590Z,0
2017-08-23T02:04:25.594Z,0
2017-08-23T02:05:25.588Z,0
2017-08-23T02:06:25.581Z,0
2017-08-23T02:07:25.589Z,0
2017-08-23T02:08:25.588Z,0
2017-08-23T02:09:25.280Z,0
2017-08-23T02:10:25.276Z,0
2017-08-23T02:11:25.579Z,0
2017-08-23T02:12:25.584Z,0
2017-08-23T02:13:25.581Z,0
2017-08-23T02:14:25.268Z,0
2017-08-23T02:15:25.580Z,0
2017-08-23T02:16:25.574Z,0
2017-08-23T02:17:25.575Z,0
2017-08-23T02:18:25.265Z,0
2017-08-23T02:19:25.264Z,0
2017-08-23T02:20:25.262Z,0
2017-08-23T02:21:25.570Z,0
2017-08-23T02:22:25.266Z,0
2017-08-23T02:23:25.259Z,0
2017-08-23T02:24:25.259Z,0
2017-08-23T02:25:25.256Z,0
2017-08-23T02:26:25.566Z,0
2017-08-23T02:27:25.254Z,0
2017-08-23T02:28:25.254Z,0
2017-08-23T02:29:25.250Z,0
2017-08-23T02:30:25.246Z,0
2017-08-23T02:31:25.247Z,0
2017-08-23T02:32:25.242Z,0
2017-08-23T02:33:25.548Z,0
2017-08-23T02:34:25.548Z,0
2017-08-23T02:35:25.236Z,0
2017-08-23T02:36:24.940Z,0
2017-08-23T02:37:25.537Z,0
2017-08-23T02:38:25.245Z,0
2017-08-23T02:39:25.226Z,0
2017-08-23T02:40:25.233Z,0
2017-08-23T02:41:25.228Z,0
2017-08-23T02:42:25.227Z,0
2017-08-23T02:43:25.540Z,0
2017-08-23T02:44:25.535Z,0
2017-08-23T02:45:25.223Z,0
2017-08-23T02:46:25.220Z,0
2017-08-23T02:47:25.524Z,0
2017-08-23T02:48:25.222Z,0
2017-08-23T02:49:25.215Z,0
2017-08-23T02:50:25.521Z,0
2017-08-23T02:51:25.214Z,0
2017-08-23T02:52:25.518Z,0
2017-08-23T02:53:25.522Z,0
2017-08-23T02:54:25.208Z,0
2017-08-23T02:55:25.216Z,0
2017-08-23T02:56:25.206Z,0
2017-08-23T02:57:25.206Z,0
2017-08-23T02:58:25.206Z,0
2017-08-23T02:59:25.204Z,0
2017-08-23T03:00:25.511Z,0
2017-08-23T03:01:25.204Z,0
2017-08-23T03:02:25.508Z,0
2017-08-23T03:03:25.199Z,0
2017-08-23T03:04:25.194Z,0
2017-08-23T03:05:25.198Z,0
2017-08-23T03:06:25.188Z,0
2017-08-23T03:07:25.499Z,0
2017-08-23T03:08:25.497Z,0
2017-08-23T03:09:25.193Z,0
2017-08-23T03:10:25.187Z,0
2017-08-23T03:11:25.182Z,0
2017-08-23T03:12:25.488Z,0
2017-08-23T03:13:25.182Z,0
2017-08-23T03:14:25.484Z,0
2017-08-23T03:15:25.480Z,0
2017-08-23T03:16:25.484Z,0
2017-08-23T03:17:25.484Z,0
2017-08-23T03:18:25.477Z,0
2017-08-23T03:19:25.478Z,0
2017-08-23T03:20:25.482Z,0
2017-08-23T03:21:25.473Z,0
2017-08-23T03:22:25.474Z,0
2017-08-23T03:23:25.468Z,0
2017-08-23T03:24:25.475Z,0
2017-08-23T03:25:25.467Z,0
2017-08-23T03:26:25.462Z,0
2017-08-23T03:27:25.162Z,0
2017-08-23T03:28:25.468Z,0
2017-08-23T03:29:25.159Z,0
2017-08-23T03:30:25.475Z,0
2017-08-23T03:31:25.154Z,0
2017-08-23T03:32:25.458Z,0
2017-08-23T03:33:25.489Z,0
2017-08-23T03:34:25.457Z,0
2017-08-23T03:35:25.146Z,0
2017-08-23T03:36:25.464Z,0
2017-08-23T03:37:25.148Z,0
2017-08-23T03:38:25.152Z,0
2017-08-23T03:39:25.457Z,0
2017-08-23T03:40:25.475Z,0
2017-08-23T03:41:25.447Z,0
2017-08-23T03:42:25.133Z,0
2017-08-23T03:43:25.438Z,0
2017-08-23T03:44:25.133Z,0
2017-08-23T03:45:25.130Z,0
2017-08-23T03:46:25.434Z,0
2017-08-23T03:47:25.129Z,0
2017-08-23T03:48:25.126Z,0
2017-08-23T03:49:25.434Z,0
2017-08-23T03:50:25.121Z,0
2017-08-23T03:51:25.424Z,0
2017-08-23T03:52:25.432Z,0
2017-08-23T03:53:25.119Z,0
2017-08-23T03:54:25.112Z,0
2017-08-23T03:55:25.113Z,0
2017-08-23T03:56:25.114Z,0
2017-08-23T03:57:25.422Z,0
2017-08-23T03:58:25.416Z,0
2017-08-23T03:59:25.412Z,0
2017-08-23T04:00:25.411Z,0
2017-08-23T04:01:25.108Z,0
2017-08-23T04:02:25.413Z,0
2017-08-23T04:03:25.105Z,0
2017-08-23T04:04:25.403Z,0
2017-08-23T04:05:25.400Z,0
2017-08-23T04:06:25.403Z,0
2017-08-23T04:07:25.395Z,4
2017-08-23T04:08:25.401Z,4
2017-08-23T04:09:25.393Z,4
2017-08-23T04:10:25.395Z,4
2017-08-23T04:11:25.398Z,4
2017-08-23T04:12:25.086Z,4
2017-08-23T04:13:25.083Z,8
2017-08-23T04:14:25.389Z,8
2017-08-23T04:15:25.385Z,12
2017-08-23T04:16:25.387Z,12
2017-08-23T04:17:25.385Z,16
2017-08-23T04:18:25.376Z,20
2017-08-23T04:19:25.073Z,20
2017-08-23T04:20:25.382Z,20
2017-08-23T04:21:25.372Z,20
2017-08-23T04:22:25.374Z,20
2017-08-23T04:23:25.376Z,24
2017-08-23T04:24:25.375Z,24
2017-08-23T04:25:25.371Z,28
2017-08-23T04:26:25.372Z,32
2017-08-23T04:27:25.367Z,40
2017-08-23T04:28:25.060Z,44
2017-08-23T04:29:25.371Z,44
2017-08-23T04:30:25.361Z,52
2017-08-23T04:31:25.360Z,56
2017-08-23T04:32:25.357Z,60
2017-08-23T04:33:25.354Z,60
2017-08-23T04:34:25.360Z,64
2017-08-23T04:35:25.346Z,68
2017-08-23T04:36:25.347Z,72
2017-08-23T04:37:25.066Z,76
2017-08-23T04:38:25.350Z,88
2017-08-23T04:39:25.380Z,96
2017-08-23T04:40:25.349Z,108
2017-08-23T04:41:25.048Z,124
2017-08-23T04:42:24.732Z,140
2017-08-23T04:43:24.426Z,156
2017-08-23T04:44:25.033Z,176
2017-08-23T04:45:24.719Z,196
2017-08-23T04:46:25.032Z,208
2017-08-23T04:47:24.723Z,224
2017-08-23T04:48:25.022Z,240
2017-08-23T04:49:25.329Z,260
2017-08-23T04:50:25.327Z,280
2017-08-23T04:51:25.018Z,312
2017-08-23T04:52:25.318Z,336
2017-08-23T04:53:24.709Z,376
2017-08-23T04:54:25.313Z,424
2017-08-23T04:55:25.330Z,460
2017-08-23T04:56:25.317Z,500
2017-08-23T04:57:25.002Z,544
2017-08-23T04:58:25.033Z,600
2017-08-23T04:59:24.697Z,636
2017-08-23T05:00:25.316Z,684
2017-08-23T05:01:25.305Z,720
2017-08-23T05:02:25.305Z,804
2017-08-23T05:03:25.010Z,932
2017-08-23T05:04:25.013Z,1140
2017-08-23T05:05:25.297Z,1144
2017-08-23T05:06:25.297Z,1008
2017-08-23T05:07:24.994Z,1160
2017-08-23T05:08:25.294Z,1320
2017-08-23T05:09:25.300Z,1300
2017-08-23T05:10:24.991Z,1308
2017-08-23T05:11:25.287Z,1400
2017-08-23T05:12:25.416Z,1432
2017-08-23T05:13:24.678Z,1424
2017-08-23T05:14:25.391Z,1548
2017-08-23T05:15:25.283Z,1460
2017-08-23T05:16:25.284Z,1312
2017-08-23T05:17:25.292Z,1252
2017-08-23T05:18:25.276Z,1208
2017-08-23T05:19:25.377Z,1148
2017-08-23T05:20:25.304Z,1080
2017-08-23T05:21:24.976Z,968
2017-08-23T05:22:25.276Z,848
2017-08-23T05:23:25.269Z,1236
2017-08-23T05:24:25.271Z,676
2017-08-23T05:25:25.270Z,728
2017-08-23T05:26:25.267Z,536
2017-08-23T05:27:25.264Z,532
2017-08-23T05:28:25.362Z,552
2017-08-23T05:29:25.271Z,592
2017-08-23T05:30:24.754Z,644
2017-08-23T05:31:25.254Z,728
2017-08-23T05:32:25.258Z,792
2017-08-23T05:33:25.256Z,872
2017-08-23T05:34:25.054Z,964
2017-08-23T05:35:25.350Z,1044
2017-08-23T05:36:25.250Z,1132
2017-08-23T05:37:25.252Z,1236
2017-08-23T05:38:25.259Z,1348
2017-08-23T05:39:24.942Z,1432
2017-08-23T05:40:25.281Z,1516
2017-08-23T05:41:25.246Z,1584
2017-08-23T05:42:25.239Z,1580
2017-08-23T05:43:25.241Z,1512
2017-08-23T05:44:25.244Z,1416
2017-08-23T05:45:25.242Z,1348
2017-08-23T05:46:25.235Z,1444
2017-08-23T05:47:25.348Z,1476
2017-08-23T05:48:25.239Z,3476
2017-08-23T05:49:25.232Z,1856
2017-08-23T05:50:25.234Z,1900
2017-08-23T05:51:25.230Z,2040
2017-08-23T05:52:25.233Z,2152
2017-08-23T05:53:25.231Z,2180
2017-08-23T05:54:24.927Z,2208
2017-08-23T05:55:24.920Z,2348
2017-08-23T05:56:24.919Z,2228
2017-08-23T05:57:25.227Z,2196
2017-08-23T05:58:25.223Z,2248
2017-08-23T05:59:25.222Z,2412
2017-08-23T06:00:24.912Z,2556
2017-08-23T06:01:25.214Z,2708
2017-08-23T06:02:25.216Z,3056
2017-08-23T06:03:25.211Z,3488
2017-08-23T06:04:24.904Z,3292
2017-08-23T06:05:24.595Z,4616
2017-08-23T06:06:25.001Z,3540
2017-08-23T06:07:25.003Z,4380
2017-08-23T06:08:24.289Z,8000
2017-08-23T06:09:24.592Z,4552
2017-08-23T06:10:25.207Z,3232
2017-08-23T06:11:25.204Z,3200
2017-08-23T06:12:24.588Z,3284
2017-08-23T06:13:25.198Z,3348
2017-08-23T06:14:25.196Z,3436
2017-08-23T06:15:24.894Z,3652
2017-08-23T06:16:24.584Z,3956
2017-08-23T06:17:25.204Z,4748
2017-08-23T06:18:25.200Z,4660
2017-08-23T06:19:24.889Z,4152
2017-08-23T06:20:25.194Z,3688
2017-08-23T06:21:24.893Z,3480
2017-08-23T06:22:24.886Z,3432
2017-08-23T06:23:24.894Z,3324
2017-08-23T06:24:25.207Z,3284
2017-08-23T06:25:24.679Z,3404
2017-08-23T06:26:25.284Z,3664
2017-08-23T06:27:25.187Z,4196
2017-08-23T06:28:24.275Z,7432
2017-08-23T06:29:25.181Z,11952
2017-08-23T06:30:25.180Z,14336
2017-08-23T06:31:24.879Z,7196
2017-08-23T06:32:24.982Z,8748
2017-08-23T06:33:24.875Z,13116
2017-08-23T06:34:24.878Z,17120
2017-08-23T06:35:25.181Z,13960
2017-08-23T06:36:25.181Z,11856
2017-08-23T06:37:25.180Z,13516
2017-08-23T06:38:25.286Z,8412
2017-08-23T06:39:25.192Z,9176
2017-08-23T06:40:25.186Z,6280
2017-08-23T06:41:25.181Z,5552
2017-08-23T06:42:25.175Z,5016
2017-08-23T06:43:25.181Z,4832
2017-08-23T06:44:25.180Z,4684
2017-08-23T06:45:25.282Z,4780
2017-08-23T06:46:25.181Z,4932
2017-08-23T06:47:25.278Z,5148
2017-08-23T06:48:25.175Z,5616
2017-08-23T06:49:24.566Z,6512
2017-08-23T06:50:24.970Z,6304
2017-08-23T06:51:25.173Z,6208
2017-08-23T06:52:25.176Z,5836
2017-08-23T06:53:25.172Z,6376
2017-08-23T06:54:25.178Z,11880
2017-08-23T06:55:24.973Z,8924
2017-08-23T06:56:24.871Z,14124
2017-08-23T06:57:25.172Z,12168
2017-08-23T06:58:25.277Z,16416
2017-08-23T06:59:25.178Z,20480
2017-08-23T07:00:24.869Z,8828
2017-08-23T07:01:25.174Z,9720
2017-08-23T07:02:25.181Z,6948
2017-08-23T07:03:25.174Z,5136
2017-08-23T07:04:25.271Z,4592
2017-08-23T07:05:24.864Z,4572
2017-08-23T07:06:24.872Z,4896
2017-08-23T07:07:25.278Z,5188
2017-08-23T07:08:25.171Z,5248
2017-08-23T07:09:25.173Z,5848
2017-08-23T07:10:24.966Z,6820
2017-08-23T07:11:25.172Z,6888
2017-08-23T07:12:24.868Z,6776
2017-08-23T07:13:25.176Z,7712
2017-08-23T07:14:25.181Z,10292
2017-08-23T07:15:25.272Z,8516
2017-08-23T07:16:25.173Z,9660
2017-08-23T07:17:25.175Z,8220
2017-08-23T07:18:25.175Z,9320
2017-08-23T07:19:24.874Z,8764
2017-08-23T07:20:24.969Z,7072
2017-08-23T07:21:25.178Z,6812
2017-08-23T07:22:24.564Z,6300
2017-08-23T07:23:24.865Z,4576
2017-08-23T07:24:24.874Z,4180
2017-08-23T07:25:25.174Z,3856
2017-08-23T07:26:25.180Z,3668
2017-08-23T07:27:25.174Z,3492
2017-08-23T07:28:25.177Z,3344
2017-08-23T07:29:24.868Z,3256
2017-08-23T07:30:25.192Z,3208
2017-08-23T07:31:25.175Z,3152
2017-08-23T07:32:25.272Z,3124
2017-08-23T07:33:25.176Z,3172
2017-08-23T07:34:25.187Z,3260
2017-08-23T07:35:25.179Z,3324
2017-08-23T07:36:25.176Z,3348
2017-08-23T07:37:25.175Z,3372
2017-08-23T07:38:25.173Z,3400
2017-08-23T07:39:25.185Z,3428
2017-08-23T07:40:24.877Z,3456
2017-08-23T07:41:24.872Z,3468
2017-08-23T07:42:25.174Z,3480
2017-08-23T07:43:24.873Z,3500
2017-08-23T07:44:25.179Z,3488
2017-08-23T07:45:25.176Z,3480
2017-08-23T07:46:24.870Z,3496
2017-08-23T07:47:24.871Z,3528
2017-08-23T07:48:24.974Z,3532
2017-08-23T07:49:24.863Z,3508
2017-08-23T07:50:24.979Z,3428
2017-08-23T07:51:24.869Z,3376
2017-08-23T07:52:24.872Z,3364
2017-08-23T07:53:25.267Z,3336
2017-08-23T07:54:24.869Z,3312
2017-08-23T07:55:25.166Z,3276
2017-08-23T07:56:24.861Z,3244
2017-08-23T07:57:25.277Z,3208
2017-08-23T07:58:25.164Z,3152
2017-08-23T07:59:25.167Z,3160
2017-08-23T08:00:25.170Z,3176
2017-08-23T08:01:25.166Z,3224
2017-08-23T08:02:25.169Z,3248
2017-08-23T08:03:25.172Z,3300
2017-08-23T08:04:25.193Z,3372
2017-08-23T08:05:24.857Z,3528
2017-08-23T08:06:25.172Z,3736
2017-08-23T08:07:24.860Z,3868
2017-08-23T08:08:25.055Z,3984
2017-08-23T08:09:24.857Z,4144
2017-08-23T08:10:25.164Z,4432
2017-08-23T08:11:25.163Z,4700
2017-08-23T08:12:25.361Z,4956
2017-08-23T08:13:25.163Z,5144
2017-08-23T08:14:24.850Z,5256
2017-08-23T08:15:25.154Z,5352
2017-08-23T08:16:25.154Z,5296
2017-08-23T08:17:24.851Z,5216
2017-08-23T08:18:24.852Z,5000
2017-08-23T08:19:24.852Z,4892
2017-08-23T08:20:24.847Z,4852
2017-08-23T08:21:25.156Z,4904
2017-08-23T08:22:24.856Z,5100
2017-08-23T08:23:24.851Z,5284
2017-08-23T08:24:25.251Z,5432
2017-08-23T08:25:25.255Z,5456
2017-08-23T08:26:24.846Z,5424
2017-08-23T08:27:24.843Z,5416
2017-08-23T08:28:25.152Z,5460
2017-08-23T08:29:25.148Z,5516
2017-08-23T08:30:25.145Z,5612
2017-08-23T08:31:24.940Z,5664
2017-08-23T08:32:24.855Z,5696
2017-08-23T08:33:24.544Z,5744
2017-08-23T08:34:24.838Z,5788
2017-08-23T08:35:25.253Z,5812
2017-08-23T08:36:25.149Z,5772
2017-08-23T08:37:24.843Z,5620
2017-08-23T08:38:25.149Z,5464
2017-08-23T08:39:25.153Z,5376
2017-08-23T08:40:24.839Z,5248
2017-08-23T08:41:24.840Z,5184
2017-08-23T08:42:25.143Z,5200
2017-08-23T08:43:25.140Z,5300
2017-08-23T08:44:24.846Z,5452
2017-08-23T08:45:24.838Z,5520
2017-08-23T08:46:25.142Z,5524
2017-08-23T08:47:25.144Z,5432
2017-08-23T08:48:25.144Z,5360
2017-08-23T08:49:25.141Z,5400
2017-08-23T08:50:24.936Z,5468
2017-08-23T08:51:25.240Z,5476
2017-08-23T08:52:25.147Z,5424
2017-08-23T08:53:25.137Z,5460
2017-08-23T08:54:25.135Z,5604
2017-08-23T08:55:25.140Z,5840
2017-08-23T08:56:24.631Z,5876
2017-08-23T08:57:24.528Z,5836
2017-08-23T08:58:24.532Z,5880
2017-08-23T08:59:25.142Z,5864
2017-08-23T09:00:24.526Z,5868
2017-08-23T09:01:25.136Z,5824
2017-08-23T09:02:25.139Z,5788
2017-08-23T09:03:25.139Z,5860
2017-08-23T09:04:25.148Z,6276
2017-08-23T09:05:25.133Z,6324
2017-08-23T09:06:25.133Z,6240
2017-08-23T09:07:25.138Z,5920
2017-08-23T09:08:25.140Z,5636
2017-08-23T09:09:25.131Z,5476
2017-08-23T09:10:25.160Z,5300
2017-08-23T09:11:24.826Z,5024
2017-08-23T09:12:25.134Z,4536
2017-08-23T09:13:25.132Z,4188
2017-08-23T09:14:24.837Z,3956
2017-08-23T09:15:25.138Z,3724
2017-08-23T09:16:25.133Z,3552
2017-08-23T09:17:25.134Z,3408
2017-08-23T09:18:24.826Z,3268
2017-08-23T09:19:25.131Z,3120
2017-08-23T09:20:25.346Z,2940
2017-08-23T09:21:25.126Z,2752
2017-08-23T09:22:25.238Z,2572
2017-08-23T09:23:24.829Z,2416
2017-08-23T09:24:25.127Z,2296
2017-08-23T09:25:25.127Z,2196
2017-08-23T09:26:25.131Z,2112
2017-08-23T09:27:25.234Z,2048
2017-08-23T09:28:25.128Z,2000
2017-08-23T09:29:25.131Z,1956
2017-08-23T09:30:25.228Z,1924
2017-08-23T09:31:25.126Z,1904
2017-08-23T09:32:25.132Z,1880
2017-08-23T09:33:25.230Z,1860
2017-08-23T09:34:25.124Z,1852
2017-08-23T09:35:25.124Z,1836
2017-08-23T09:36:24.817Z,1868
2017-08-23T09:37:25.126Z,1952
2017-08-23T09:38:24.817Z,2056
2017-08-23T09:39:25.121Z,2168
2017-08-23T09:40:25.127Z,2208
2017-08-23T09:41:25.119Z,2200
2017-08-23T09:42:25.121Z,2132
2017-08-23T09:43:24.809Z,2064
2017-08-23T09:44:24.915Z,2004
2017-08-23T09:45:25.123Z,1936
2017-08-23T09:46:25.134Z,1876
2017-08-23T09:47:25.112Z,1828
2017-08-23T09:48:25.115Z,1792
2017-08-23T09:49:25.217Z,1764
2017-08-23T09:50:25.109Z,1728
2017-08-23T09:51:24.809Z,1708
2017-08-23T09:52:25.110Z,1680
2017-08-23T09:53:25.311Z,1656
2017-08-23T09:54:25.113Z,1632
2017-08-23T09:55:25.109Z,1616
2017-08-23T09:56:25.102Z,1604
2017-08-23T09:57:25.103Z,1588
2017-08-23T09:58:24.904Z,1580
2017-08-23T09:59:24.493Z,1556
2017-08-23T10:00:24.496Z,1560
2017-08-23T10:01:25.098Z,1552
2017-08-23T10:02:25.102Z,1548
2017-08-23T10:03:25.105Z,1552
2017-08-23T10:04:24.794Z,1552
2017-08-23T10:05:25.098Z,1560
2017-08-23T10:06:25.210Z,1580
2017-08-23T10:07:25.097Z,1604
2017-08-23T10:08:25.094Z,1624
2017-08-23T10:09:25.092Z,1632
2017-08-23T10:10:25.091Z,1628
2017-08-23T10:11:25.087Z,1616
2017-08-23T10:12:25.091Z,1588
2017-08-23T10:13:24.177Z,1580
2017-08-23T10:14:25.089Z,1564
2017-08-23T10:15:25.090Z,1552
2017-08-23T10:16:25.086Z,1556
2017-08-23T10:17:25.089Z,1536
2017-08-23T10:18:24.786Z,1528
2017-08-23T10:19:25.084Z,1524
2017-08-23T10:20:25.181Z,1516
2017-08-23T10:21:24.778Z,1512
2017-08-23T10:22:25.111Z,1508
2017-08-23T10:23:25.078Z,1504
2017-08-23T10:24:25.077Z,1520
2017-08-23T10:25:24.777Z,1536
2017-08-23T10:26:24.464Z,1560
2017-08-23T10:27:24.772Z,1552
2017-08-23T10:28:25.176Z,1536
2017-08-23T10:29:25.079Z,1520
2017-08-23T10:30:25.070Z,1500
2017-08-23T10:31:25.083Z,1492
2017-08-23T10:32:25.169Z,1468
2017-08-23T10:33:25.068Z,1464
2017-08-23T10:34:25.072Z,1452
2017-08-23T10:35:24.760Z,1440
2017-08-23T10:36:25.065Z,1428
2017-08-23T10:37:25.163Z,1408
2017-08-23T10:38:24.856Z,1392
2017-08-23T10:39:24.761Z,1384
2017-08-23T10:40:25.074Z,1372
2017-08-23T10:41:25.057Z,1368
2017-08-23T10:42:24.756Z,1360
2017-08-23T10:43:25.154Z,1356
2017-08-23T10:44:25.256Z,1364
2017-08-23T10:45:24.752Z,1360
2017-08-23T10:46:24.747Z,1340
2017-08-23T10:47:24.139Z,1336
2017-08-23T10:48:25.153Z,1332
2017-08-23T10:49:25.150Z,1332
2017-08-23T10:50:25.045Z,1328
2017-08-23T10:51:25.049Z,1328
2017-08-23T10:52:24.740Z,1312
2017-08-23T10:53:24.735Z,1308
2017-08-23T10:54:25.146Z,1300
2017-08-23T10:55:25.046Z,1292
2017-08-23T10:56:25.037Z,1284
2017-08-23T10:57:24.736Z,1276
2017-08-23T10:58:25.041Z,1276
2017-08-23T10:59:25.040Z,1272
2017-08-23T11:00:25.043Z,1268
2017-08-23T11:01:25.037Z,1256
2017-08-23T11:02:24.429Z,1268
2017-08-23T11:03:25.047Z,1240
2017-08-23T11:04:24.426Z,1220
2017-08-23T11:05:25.039Z,1208
2017-08-23T11:06:25.034Z,1200
2017-08-23T11:07:25.028Z,1192
2017-08-23T11:08:25.030Z,1212
2017-08-23T11:09:25.026Z,1216
2017-08-23T11:10:25.123Z,1164
2017-08-23T11:11:25.028Z,1188
2017-08-23T11:12:25.022Z,1236
2017-08-23T11:13:25.019Z,1248
2017-08-23T11:14:25.021Z,1252
2017-08-23T11:15:24.715Z,1252
2017-08-23T11:16:25.016Z,1220
2017-08-23T11:17:25.012Z,1160
2017-08-23T11:18:25.020Z,1100
2017-08-23T11:19:25.121Z,1172
2017-08-23T11:20:25.109Z,1204
2017-08-23T11:21:25.010Z,1256
2017-08-23T11:22:25.012Z,1284
2017-08-23T11:23:25.006Z,1292
2017-08-23T11:24:25.007Z,1288
2017-08-23T11:25:24.711Z,1288
2017-08-23T11:26:24.395Z,1280
2017-08-23T11:27:24.395Z,1264
2017-08-23T11:28:25.005Z,1248
2017-08-23T11:29:24.398Z,1220
2017-08-23T11:30:24.999Z,1200
2017-08-23T11:31:24.999Z,1184
2017-08-23T11:32:25.096Z,1176
2017-08-23T11:33:25.004Z,1164
2017-08-23T11:34:24.730Z,1152
2017-08-23T11:35:24.378Z,1140
2017-08-23T11:36:24.998Z,1136
2017-08-23T11:37:24.988Z,1128
2017-08-23T11:38:24.377Z,1124
2017-08-23T11:39:24.986Z,1120
2017-08-23T11:40:24.674Z,1116
2017-08-23T11:41:25.112Z,1104
2017-08-23T11:42:24.993Z,1100
2017-08-23T11:43:24.674Z,1088
2017-08-23T11:44:25.121Z,1092
2017-08-23T11:45:24.675Z,1080
2017-08-23T11:46:24.981Z,1080
2017-08-23T11:47:24.977Z,1076
2017-08-23T11:48:24.972Z,1076
2017-08-23T11:49:24.666Z,1072
2017-08-23T11:50:24.662Z,1064
2017-08-23T11:51:24.973Z,1056
2017-08-23T11:52:24.966Z,1056
2017-08-23T11:53:24.655Z,1048
2017-08-23T11:54:24.968Z,1040
2017-08-23T11:55:24.968Z,1040
2017-08-23T11:56:24.658Z,1036
2017-08-23T11:57:24.755Z,1032
2017-08-23T11:58:24.764Z,1032
2017-08-23T11:59:25.273Z,1028
2017-08-23T12:00:24.751Z,1024
2017-08-23T12:01:24.651Z,1020
2017-08-23T12:02:24.797Z,1016
2017-08-23T12:03:24.952Z,1012
2017-08-23T12:04:24.752Z,1012
2017-08-23T12:05:24.649Z,1008
2017-08-23T12:06:24.643Z,1000
2017-08-23T12:07:24.687Z,1000
2017-08-23T12:08:25.145Z,1000
2017-08-23T12:09:24.645Z,984
2017-08-23T12:10:24.641Z,992
2017-08-23T12:11:24.636Z,992
2017-08-23T12:12:25.056Z,992
2017-08-23T12:13:24.626Z,992
2017-08-23T12:14:24.632Z,992
2017-08-23T12:15:24.656Z,992
2017-08-23T12:16:24.628Z,988
2017-08-23T12:17:24.941Z,988
2017-08-23T12:18:24.725Z,984
2017-08-23T12:19:24.939Z,984
2017-08-23T12:20:24.624Z,976
2017-08-23T12:21:24.617Z,976
2017-08-23T12:22:24.725Z,976
2017-08-23T12:23:24.919Z,976
2017-08-23T12:24:24.619Z,968
2017-08-23T12:25:24.615Z,976
2017-08-23T12:26:24.924Z,980
2017-08-23T12:27:24.918Z,984
2017-08-23T12:28:25.020Z,984
2017-08-23T12:29:25.016Z,980
2017-08-23T12:30:24.614Z,972
2017-08-23T12:31:24.611Z,972
2017-08-23T12:32:24.604Z,956
2017-08-23T12:33:24.700Z,956
2017-08-23T12:34:24.599Z,960
2017-08-23T12:35:25.006Z,956
2017-08-23T12:36:24.294Z,952
2017-08-23T12:37:24.898Z,952
2017-08-23T12:38:24.402Z,944
2017-08-23T12:39:24.894Z,944
2017-08-23T12:40:24.894Z,940
2017-08-23T12:41:24.313Z,940
2017-08-23T12:42:24.898Z,932
2017-08-23T12:43:24.889Z,936
2017-08-23T12:44:24.887Z,932
2017-08-23T12:45:24.585Z,924
2017-08-23T12:46:24.991Z,920
2017-08-23T12:47:24.887Z,920
2017-08-23T12:48:24.880Z,916
2017-08-23T12:49:24.577Z,916
2017-08-23T12:50:24.981Z,912
2017-08-23T12:51:24.882Z,916
2017-08-23T12:52:24.879Z,920
2017-08-23T12:53:24.574Z,916
2017-08-23T12:54:24.876Z,912
2017-08-23T12:55:24.565Z,912
2017-08-23T12:56:24.875Z,900
2017-08-23T12:57:24.870Z,908
2017-08-23T12:58:24.561Z,904
2017-08-23T12:59:24.562Z,900
2017-08-23T13:00:24.662Z,896
2017-08-23T13:01:24.561Z,892
2017-08-23T13:02:24.859Z,900
2017-08-23T13:03:24.657Z,896
2017-08-23T13:04:24.555Z,888
2017-08-23T13:05:24.554Z,892
2017-08-23T13:06:24.550Z,888
2017-08-23T13:07:24.957Z,888
2017-08-23T13:08:24.650Z,888
2017-08-23T13:09:24.847Z,884
2017-08-23T13:10:24.544Z,884
2017-08-23T13:11:24.539Z,884
2017-08-23T13:12:24.642Z,880
2017-08-23T13:13:24.844Z,884
2017-08-23T13:14:24.845Z,888
2017-08-23T13:15:24.843Z,888
2017-08-23T13:16:24.840Z,884
2017-08-23T13:17:24.632Z,884
2017-08-23T13:18:24.537Z,880
2017-08-23T13:19:24.841Z,876
2017-08-23T13:20:24.627Z,876
2017-08-23T13:21:24.832Z,876
2017-08-23T13:22:24.521Z,880
2017-08-23T13:23:24.889Z,880
2017-08-23T13:24:24.521Z,880
2017-08-23T13:25:24.528Z,880
2017-08-23T13:26:24.524Z,880
2017-08-23T13:27:24.516Z,876
2017-08-23T13:28:24.514Z,868
2017-08-23T13:29:24.926Z,872
2017-08-23T13:30:24.920Z,872
2017-08-23T13:31:24.528Z,872
2017-08-23T13:32:24.823Z,872
2017-08-23T13:33:24.822Z,872
2017-08-23T13:34:24.907Z,872
2017-08-23T13:35:24.807Z,872
2017-08-23T13:36:24.807Z,876
2017-08-23T13:37:24.498Z,876
2017-08-23T13:38:24.802Z,880
2017-08-23T13:39:24.905Z,876
2017-08-23T13:40:24.496Z,872
2017-08-23T13:41:24.809Z,876
2017-08-23T13:42:24.490Z,876
2017-08-23T13:43:24.492Z,872
2017-08-23T13:44:24.487Z,868
2017-08-23T13:45:24.788Z,872
2017-08-23T13:46:24.486Z,872
2017-08-23T13:47:24.791Z,872
2017-08-23T13:48:24.484Z,872
2017-08-23T13:49:24.584Z,872